Time;durP1;ratioP1;P1;durP2;ratioP2;P2;SDS_P1;SDS_P2;PMS_P1;PMS_P2;Temp;Humidity;BMP_temperature;BMP_pressure;BME280_temperature;BME280_humidity;BME280_pressure;Samples;Min_cycle;Max_cycle;Signal;HPM_P1;HPM_P2
2022/11/28 00:00:32;;;;;;;5.80;3.45;;;16.60;99.90;;;;;;4237512;27;20213;-73
2022/11/28 00:02:36;;;;;;;4.25;3.35;;;16.60;99.90;;;;;;4228923;28;20209;-73
2022/11/28 00:04:38;;;;;;;5.43;3.60;;;16.60;99.90;;;;;;4239653;27;20214;-73
2022/11/28 00:06:44;;;;;;;4.88;3.78;;;16.60;99.90;;;;;;4246889;27;20217;-73
2022/11/28 00:08:46;;;;;;;4.25;3.45;;;16.60;99.90;;;;;;4239400;27;20271;-74
2022/11/28 00:10:48;;;;;;;4.55;3.50;;;16.60;99.90;;;;;;4232975;27;20254;-73
2022/11/28 00:12:51;;;;;;;4.82;3.53;;;16.60;99.90;;;;;;4235820;27;20221;-73
2022/11/28 00:14:53;;;;;;;4.78;3.78;;;16.50;99.90;;;;;;4229419;28;20210;-73
2022/11/28 00:16:55;;;;;;;4.78;3.33;;;16.60;99.90;;;;;;4237087;27;20678;-73
2022/11/28 00:19:01;;;;;;;4.40;3.42;;;16.50;99.90;;;;;;4237125;27;20221;-73
2022/11/28 00:21:05;;;;;;;4.30;3.53;;;16.60;99.90;;;;;;4237412;27;20241;-74
2022/11/28 00:23:07;;;;;;;4.60;3.63;;;16.50;99.90;;;;;;4235957;27;20703;-73
2022/11/28 00:25:10;;;;;;;4.23;3.40;;;16.60;99.90;;;;;;4234579;27;20217;-73
2022/11/28 00:27:12;;;;;;;5.22;4.22;;;16.60;99.90;;;;;;4262148;27;20204;-73
2022/11/28 00:29:14;;;;;;;4.15;3.47;;;16.60;99.90;;;;;;4258312;27;20323;-73
2022/11/28 00:31:19;;;;;;;4.53;3.25;;;16.60;99.90;;;;;;4246122;27;20569;-73
2022/11/28 00:33:22;;;;;;;4.82;3.22;;;16.60;99.90;;;;;;4246366;27;20205;-73
2022/11/28 00:35:25;;;;;;;4.80;3.63;;;16.50;99.90;;;;;;4246414;27;20266;-73
2022/11/28 00:37:28;;;;;;;5.78;3.72;;;16.50;99.90;;;;;;4233087;27;20263;-73
2022/11/28 00:39:30;;;;;;;4.75;3.38;;;16.60;99.90;;;;;;4229818;28;20229;-73
2022/11/28 00:41:34;;;;;;;3.85;3.30;;;16.50;99.90;;;;;;4229204;28;20283;-73
2022/11/28 00:43:37;;;;;;;4.03;3.35;;;16.50;99.90;;;;;;4228665;28;20578;-73
2022/11/28 00:45:39;;;;;;;4.15;3.30;;;16.50;99.90;;;;;;4232375;27;20214;-73
2022/11/28 00:47:41;;;;;;;4.20;3.33;;;16.60;99.90;;;;;;4263524;27;20216;-73
2022/11/28 00:49:44;;;;;;;3.80;3.40;;;16.60;99.90;;;;;;4263607;27;20261;-73
2022/11/28 00:51:48;;;;;;;4.80;3.60;;;16.50;99.90;;;;;;4263273;27;20258;-73
2022/11/28 00:53:52;;;;;;;3.22;2.92;;;16.50;99.90;;;;;;4250671;27;20205;-73
2022/11/28 00:55:55;;;;;;;4.80;3.38;;;16.50;99.90;;;;;;4231798;28;20213;-73
2022/11/28 00:57:57;;;;;;;3.92;3.22;;;16.50;99.90;;;;;;4228627;28;20670;-74
2022/11/28 00:59:59;;;;;;;3.67;3.05;;;16.50;99.90;;;;;;4228840;28;20214;-73
2022/11/28 01:02:02;;;;;;;4.43;3.28;;;16.50;99.90;;;;;;4228916;28;20214;-74
2022/11/28 01:04:06;;;;;;;4.90;3.35;;;16.50;99.90;;;;;;4238245;28;20297;-73
2022/11/28 01:06:10;;;;;;;3.55;3.05;;;16.50;99.90;;;;;;4245709;28;20635;-73
2022/11/28 01:08:13;;;;;;;7.97;3.45;;;16.50;99.90;;;;;;4245539;28;20217;-73
2022/11/28 01:10:16;;;;;;;5.38;3.60;;;16.50;99.90;;;;;;4238345;28;20271;-73
2022/11/28 01:12:18;;;;;;;4.05;3.20;;;16.60;99.90;;;;;;4228751;28;20701;-73
2022/11/28 01:14:23;;;;;;;4.22;3.30;;;16.50;99.90;;;;;;4237835;28;20246;-73
2022/11/28 01:16:25;;;;;;;3.40;3.10;;;16.50;99.90;;;;;;4245532;28;20945;-73
2022/11/28 01:18:27;;;;;;;4.53;3.55;;;16.50;99.90;;;;;;4245908;28;20213;-73
2022/11/28 01:20:30;;;;;;;4.63;3.35;;;16.50;99.90;;;;;;4245376;28;20217;-73
2022/11/28 01:22:32;;;;;;;4.25;3.13;;;16.50;99.90;;;;;;4245612;27;20205;-73
2022/11/28 01:24:36;;;;;;;4.15;3.15;;;16.50;99.90;;;;;;4248778;27;20286;-73
2022/11/28 01:26:40;;;;;;;4.10;3.47;;;16.50;99.90;;;;;;4235498;27;20222;-73
2022/11/28 01:28:42;;;;;;;4.53;3.20;;;16.50;99.90;;;;;;4231610;28;20214;-73
2022/11/28 01:30:44;;;;;;;2.97;2.63;;;16.50;99.90;;;;;;4237281;27;20216;-73
2022/11/28 01:32:47;;;;;;;4.03;3.10;;;16.50;99.90;;;;;;4249036;27;20205;-73
2022/11/28 01:34:49;;;;;;;4.45;3.53;;;16.50;99.90;;;;;;4249016;27;20258;-73
2022/11/28 01:36:51;;;;;;;3.33;3.00;;;16.50;99.90;;;;;;4248626;27;20213;-73
2022/11/28 01:38:54;;;;;;;4.25;3.42;;;16.50;99.90;;;;;;4248826;27;20221;-73
2022/11/28 01:40:57;;;;;;;3.88;3.30;;;16.50;99.90;;;;;;4248771;27;20212;-73
2022/11/28 01:43:00;;;;;;;3.35;3.05;;;16.50;99.90;;;;;;4237997;27;20225;-73
2022/11/28 01:45:08;;;;;;;4.32;2.88;;;16.50;99.90;;;;;;4232068;28;20233;-73
2022/11/28 01:47:11;;;;;;;3.22;2.92;;;16.50;99.90;;;;;;4239302;27;20354;-73
2022/11/28 01:49:17;;;;;;;4.85;3.17;;;16.50;99.90;;;;;;4231820;28;20543;-73
2022/11/28 01:51:20;;;;;;;3.35;3.05;;;16.50;99.90;;;;;;4232328;28;20213;-73
2022/11/28 01:53:23;;;;;;;3.30;2.80;;;16.50;99.90;;;;;;4231711;28;20662;-73
2022/11/28 01:55:30;;;;;;;3.75;2.88;;;16.50;99.90;;;;;;4231687;28;20259;-73
2022/11/28 01:57:34;;;;;;;4.05;3.33;;;16.50;99.90;;;;;;4245394;27;20213;-73
2022/11/28 01:59:42;;;;;;;4.57;3.10;;;16.50;99.90;;;;;;4246705;27;20266;-73
2022/11/28 02:01:45;;;;;;;3.83;3.00;;;16.50;99.90;;;;;;4248550;27;20610;-72
2022/11/28 02:03:49;;;;;;;3.30;2.75;;;16.50;99.90;;;;;;4247607;27;20729;-73
2022/11/28 02:05:52;;;;;;;3.28;2.95;;;16.40;99.90;;;;;;4237453;27;20221;-73
2022/11/28 02:07:55;;;;;;;3.80;2.72;;;16.50;99.90;;;;;;4231615;28;20218;-73
2022/11/28 02:09:57;;;;;;;3.30;2.60;;;16.50;99.90;;;;;;4239274;27;20213;-73
2022/11/28 02:12:15;;;;;;;4.60;3.00;;;16.50;99.90;;;;;;4248145;27;20217;-73
2022/11/28 02:14:29;;;;;;;3.65;3.13;;;16.50;99.90;;;;;;4237484;27;20217;-73
2022/11/28 02:16:43;;;;;;;3.60;2.90;;;16.50;99.90;;;;;;4231745;28;20720;-73
2022/11/28 02:19:01;;;;;;;3.35;2.63;;;16.40;99.90;;;;;;4231379;28;20209;-73
2022/11/28 02:21:25;;;;;;;3.47;3.03;;;16.40;99.90;;;;;;4231071;27;20237;-73
2022/11/28 02:23:43;;;;;;;5.50;3.10;;;16.50;99.90;;;;;;4227676;28;20210;-73
2022/11/28 02:26:22;;;;;;;3.33;2.67;;;16.40;99.90;;;;;;4231030;28;20247;-73
2022/11/28 02:28:38;;;;;;;3.08;2.63;;;16.40;99.90;;;;;;4189952;28;20587;-73
2022/11/28 02:30:54;;;;;;;4.15;2.92;;;16.40;99.90;;;;;;4231382;28;20680;-73
2022/11/28 02:33:12;;;;;;;3.60;3.00;;;16.40;99.90;;;;;;4224557;28;20217;-73
2022/11/28 02:35:20;;;;;;;3.15;2.45;;;16.40;99.90;;;;;;4229918;28;20591;-73
2022/11/28 02:37:30;;;;;;;3.40;2.95;;;16.40;99.90;;;;;;4231136;28;20577;-73
2022/11/28 02:39:39;;;;;;;3.10;2.72;;;16.40;99.90;;;;;;4230894;28;20551;-73
2022/11/28 02:41:45;;;;;;;3.50;2.63;;;16.40;99.90;;;;;;4231049;28;20213;-73
2022/11/28 02:43:55;;;;;;;3.17;2.55;;;16.40;99.90;;;;;;4229968;28;20255;-73
2022/11/28 02:46:03;;;;;;;3.13;2.63;;;16.40;99.90;;;;;;4230442;28;20267;-73
2022/11/28 02:48:12;;;;;;;3.25;2.60;;;16.40;99.90;;;;;;4228356;28;20267;-73
2022/11/28 02:50:21;;;;;;;3.67;2.83;;;16.40;99.90;;;;;;4229555;28;20213;-73
2022/11/28 02:52:27;;;;;;;3.05;2.75;;;16.40;99.90;;;;;;4228544;28;20248;-73
2022/11/28 02:54:31;;;;;;;3.47;2.60;;;16.40;99.90;;;;;;4230973;27;20210;-73
2022/11/28 02:56:33;;;;;;;3.58;2.70;;;16.40;99.90;;;;;;4229641;28;20219;-73
2022/11/28 02:58:36;;;;;;;3.22;2.72;;;16.40;99.90;;;;;;4229607;28;20267;-73
2022/11/28 03:00:43;;;;;;;3.85;2.95;;;16.40;99.90;;;;;;4227872;28;20267;-73
2022/11/28 03:02:50;;;;;;;2.85;2.53;;;16.40;99.90;;;;;;4229504;28;20205;-73
2022/11/28 03:05:00;;;;;;;3.25;2.85;;;16.40;99.90;;;;;;4228017;28;20291;-73
2022/11/28 03:07:11;;;;;;;3.05;2.75;;;16.40;99.90;;;;;;4230014;28;20267;-73
2022/11/28 03:09:30;;;;;;;3.92;2.67;;;16.40;99.90;;;;;;4229820;27;20217;-73
2022/11/28 03:11:46;;;;;;;2.92;2.60;;;16.40;99.90;;;;;;4230928;27;20221;-73
2022/11/28 03:13:56;;;;;;;3.67;2.70;;;16.40;99.90;;;;;;4227466;28;20539;-73
2022/11/28 03:16:06;;;;;;;2.90;2.55;;;16.40;99.90;;;;;;4230101;28;20554;-73
2022/11/28 03:18:19;;;;;;;3.42;2.45;;;16.40;99.90;;;;;;4227672;28;20206;-74
2022/11/28 03:20:28;;;;;;;2.90;2.50;;;16.40;99.90;;;;;;4228040;27;20266;-73
2022/11/28 03:22:37;;;;;;;2.72;2.50;;;16.40;99.90;;;;;;4231870;27;20243;-73
2022/11/28 03:24:44;;;;;;;3.45;2.92;;;16.40;99.90;;;;;;4232681;27;20238;-73
2022/11/28 03:26:53;;;;;;;3.55;2.85;;;16.40;99.90;;;;;;4230879;27;20263;-73
2022/11/28 03:29:03;;;;;;;3.35;2.78;;;16.40;99.90;;;;;;4230563;27;20213;-73
2022/11/28 03:31:10;;;;;;;3.53;2.55;;;16.40;99.90;;;;;;4231111;27;20259;-73
2022/11/28 03:33:16;;;;;;;2.97;2.65;;;16.40;99.90;;;;;;4232911;27;20642;-73
2022/11/28 03:35:30;;;;;;;3.35;2.63;;;16.40;99.90;;;;;;4233081;27;20271;-73
2022/11/28 03:37:39;;;;;;;2.88;2.50;;;16.40;99.90;;;;;;4229410;27;20213;-73
2022/11/28 03:39:47;;;;;;;3.65;2.80;;;16.40;99.90;;;;;;4231907;27;20271;-73
2022/11/28 03:41:53;;;;;;;2.97;2.33;;;16.40;99.90;;;;;;4232470;27;20259;-73
2022/11/28 03:43:58;;;;;;;3.67;2.85;;;16.40;99.90;;;;;;4231764;27;20255;-73
2022/11/28 03:46:04;;;;;;;3.55;2.50;;;16.40;99.90;;;;;;4228588;27;20350;-74
2022/11/28 03:48:12;;;;;;;3.15;2.53;;;16.40;99.90;;;;;;4230510;27;20255;-73
2022/11/28 03:50:20;;;;;;;2.67;2.42;;;16.40;99.90;;;;;;4232705;27;20258;-73
2022/11/28 03:52:28;;;;;;;2.95;2.50;;;16.40;99.90;;;;;;4230190;27;20257;-73
2022/11/28 03:54:37;;;;;;;3.35;2.40;;;16.40;99.90;;;;;;4230870;27;20263;-73
2022/11/28 03:56:45;;;;;;;2.58;2.38;;;16.30;99.90;;;;;;4232061;27;20738;-73
2022/11/28 03:58:52;;;;;;;3.00;2.25;;;16.30;99.90;;;;;;4232360;27;20221;-73
2022/11/28 04:01:03;;;;;;;3.20;2.45;;;16.40;99.90;;;;;;4231344;27;20216;-73
2022/11/28 04:03:11;;;;;;;4.40;2.92;;;16.40;99.90;;;;;;4230678;27;20213;-73
2022/11/28 04:05:21;;;;;;;3.63;2.67;;;16.40;99.90;;;;;;4231790;27;20236;-73
2022/11/28 04:07:28;;;;;;;2.75;2.35;;;16.40;99.90;;;;;;4229719;27;20221;-73
2022/11/28 04:09:39;;;;;;;3.67;2.65;;;16.40;99.90;;;;;;4229593;27;20212;-73
2022/11/28 04:11:45;;;;;;;2.72;2.47;;;16.40;99.90;;;;;;4232093;27;20235;-73
2022/11/28 04:13:53;;;;;;;2.40;2.13;;;16.30;99.90;;;;;;4230244;27;20213;-73
2022/11/28 04:16:00;;;;;;;2.65;2.20;;;16.40;99.90;;;;;;4230911;27;20208;-73
2022/11/28 04:18:11;;;;;;;3.42;2.50;;;16.40;99.90;;;;;;4229612;27;20574;-73
2022/11/28 04:20:19;;;;;;;2.97;2.50;;;16.40;99.90;;;;;;4228315;27;20229;-73
2022/11/28 04:22:25;;;;;;;2.88;2.53;;;16.40;99.90;;;;;;4240116;27;20677;-73
2022/11/28 04:24:31;;;;;;;3.55;2.67;;;16.40;99.90;;;;;;4239877;27;20284;-73
2022/11/28 04:26:38;;;;;;;3.33;2.60;;;16.30;99.90;;;;;;4237563;27;20256;-73
2022/11/28 04:28:42;;;;;;;3.08;2.58;;;16.30;99.90;;;;;;4240039;27;20224;-73
2022/11/28 04:30:47;;;;;;;4.30;2.25;;;16.30;99.90;;;;;;4239877;27;20669;-73
2022/11/28 04:32:54;;;;;;;2.75;2.17;;;16.40;99.90;;;;;;4241543;27;20213;-73
2022/11/28 04:35:03;;;;;;;3.40;2.58;;;16.40;99.90;;;;;;4239742;27;20666;-73
2022/11/28 04:37:08;;;;;;;2.30;2.10;;;16.40;99.90;;;;;;4238884;27;20217;-73
2022/11/28 04:39:14;;;;;;;2.50;2.30;;;16.30;99.90;;;;;;4239441;27;20274;-73
2022/11/28 04:41:20;;;;;;;2.75;2.00;;;16.30;99.90;;;;;;4233553;27;20213;-73
2022/11/28 04:43:29;;;;;;;2.63;2.33;;;16.30;99.90;;;;;;4234182;27;20275;-73
2022/11/28 04:45:35;;;;;;;2.58;2.20;;;16.40;99.90;;;;;;4239513;27;20628;-73
2022/11/28 04:47:38;;;;;;;2.22;2.03;;;16.40;99.90;;;;;;4239444;27;20243;-73
2022/11/28 04:49:40;;;;;;;2.85;2.20;;;16.30;99.90;;;;;;4233561;28;20259;-73
2022/11/28 04:51:49;;;;;;;2.60;2.20;;;16.40;99.90;;;;;;4233672;28;20218;-73
2022/11/28 04:53:59;;;;;;;2.45;2.08;;;16.30;99.90;;;;;;4237051;28;20321;-73
2022/11/28 04:56:06;;;;;;;2.95;2.40;;;16.30;99.90;;;;;;4236856;28;20205;-73
2022/11/28 04:58:14;;;;;;;2.72;2.20;;;16.30;99.90;;;;;;4237547;27;20282;-73
2022/11/28 05:00:19;;;;;;;3.13;2.20;;;16.30;99.90;;;;;;4240515;27;20212;-73
2022/11/28 05:02:24;;;;;;;2.20;1.98;;;16.30;99.90;;;;;;4244007;27;20602;-73
2022/11/28 05:04:27;;;;;;;3.00;2.05;;;16.30;99.90;;;;;;4242976;27;20266;-73
2022/11/28 05:06:31;;;;;;;3.08;2.35;;;16.40;99.90;;;;;;4242834;27;20693;-73
2022/11/28 05:08:33;;;;;;;2.45;2.25;;;16.30;99.90;;;;;;4244119;27;20285;-73
2022/11/28 05:10:36;;;;;;;2.40;2.00;;;16.30;99.90;;;;;;4239200;27;20240;-74
2022/11/28 05:12:38;;;;;;;2.43;1.90;;;16.30;99.90;;;;;;4243312;27;20290;-73
2022/11/28 05:14:41;;;;;;;2.55;2.20;;;16.40;99.90;;;;;;4242704;27;20278;-73
2022/11/28 05:16:44;;;;;;;2.30;1.97;;;16.30;99.90;;;;;;4239568;27;20205;-73
2022/11/28 05:18:47;;;;;;;2.95;2.47;;;16.30;99.90;;;;;;4237161;27;20217;-74
2022/11/28 05:20:49;;;;;;;2.78;2.30;;;16.30;99.90;;;;;;4237181;27;20605;-73
2022/11/28 05:22:51;;;;;;;2.47;2.22;;;16.30;99.90;;;;;;4240570;27;20752;-73
2022/11/28 05:24:54;;;;;;;3.37;2.50;;;16.30;99.90;;;;;;4237967;27;20219;-73
2022/11/28 05:26:56;;;;;;;2.45;2.03;;;16.30;99.90;;;;;;4237810;27;20241;-73
2022/11/28 05:28:59;;;;;;;2.72;2.20;;;16.30;99.90;;;;;;4238782;27;20619;-73
2022/11/28 05:31:02;;;;;;;2.67;2.45;;;16.30;99.90;;;;;;4236944;27;20270;-73
2022/11/28 05:33:06;;;;;;;2.20;2.00;;;16.30;99.90;;;;;;4242079;27;20228;-73
2022/11/28 05:35:09;;;;;;;2.80;2.30;;;16.30;99.90;;;;;;4242608;27;20213;-74
2022/11/28 05:37:11;;;;;;;2.30;2.00;;;16.30;99.90;;;;;;4242629;27;20209;-73
2022/11/28 05:39:13;;;;;;;2.60;2.10;;;16.30;99.90;;;;;;4242524;27;20209;-73
2022/11/28 05:41:20;;;;;;;2.45;1.95;;;16.30;99.90;;;;;;4239207;27;20214;-73
2022/11/28 05:43:22;;;;;;;2.60;2.03;;;16.30;99.90;;;;;;4235377;27;20670;-73
2022/11/28 05:45:24;;;;;;;2.47;2.20;;;16.30;99.90;;;;;;4237747;27;20220;-73
2022/11/28 05:47:29;;;;;;;3.47;2.25;;;16.30;99.90;;;;;;4241009;27;20266;-73
2022/11/28 05:49:33;;;;;;;2.55;1.98;;;16.30;99.90;;;;;;4236288;27;20214;-73
2022/11/28 05:51:35;;;;;;;3.03;2.42;;;16.30;99.90;;;;;;4236823;27;20210;-74
2022/11/28 05:53:37;;;;;;;2.08;1.85;;;16.30;99.90;;;;;;4236863;27;20573;-73
2022/11/28 05:55:40;;;;;;;3.05;2.30;;;16.30;99.90;;;;;;4237093;27;21078;-73
2022/11/28 05:57:43;;;;;;;2.22;1.98;;;16.30;99.90;;;;;;4236941;27;20213;-73
2022/11/28 05:59:45;;;;;;;2.88;1.95;;;16.30;99.90;;;;;;4242150;27;20271;-73
2022/11/28 06:01:47;;;;;;;2.20;2.00;;;16.30;99.90;;;;;;4240750;27;20209;-73
2022/11/28 06:03:50;;;;;;;2.08;1.85;;;16.30;99.90;;;;;;4240294;27;20221;-73
2022/11/28 06:05:54;;;;;;;2.60;1.83;;;16.40;99.90;;;;;;4236087;27;20210;-73
2022/11/28 06:07:56;;;;;;;2.15;1.95;;;16.30;99.90;;;;;;4242028;27;20225;-73
2022/11/28 06:09:59;;;;;;;3.03;2.13;;;16.30;99.90;;;;;;4236323;27;20213;-74
2022/11/28 06:12:01;;;;;;;2.70;2.00;;;16.30;99.90;;;;;;4236656;27;20217;-73
2022/11/28 06:14:04;;;;;;;3.10;2.05;;;16.30;99.90;;;;;;4236154;27;20218;-74
2022/11/28 06:16:08;;;;;;;3.03;2.00;;;16.30;99.90;;;;;;4236421;27;21503;-73
2022/11/28 06:18:10;;;;;;;2.60;2.10;;;16.30;99.90;;;;;;4237157;27;20214;-73
2022/11/28 06:20:13;;;;;;;2.47;1.95;;;16.30;99.90;;;;;;4236306;27;20221;-73
2022/11/28 06:22:17;;;;;;;2.50;2.10;;;16.30;99.90;;;;;;4229813;28;20283;-73
2022/11/28 06:24:19;;;;;;;2.13;1.90;;;16.30;99.90;;;;;;4229780;28;20213;-73
2022/11/28 06:26:23;;;;;;;2.03;1.83;;;16.30;99.90;;;;;;4229049;28;20673;-73
2022/11/28 06:28:25;;;;;;;2.42;2.15;;;16.30;99.90;;;;;;4228367;28;20222;-73
2022/11/28 06:30:28;;;;;;;2.40;1.77;;;16.30;99.90;;;;;;4229082;28;20706;-73
2022/11/28 06:32:30;;;;;;;1.85;1.75;;;16.30;99.90;;;;;;4227305;28;20214;-73
2022/11/28 06:34:32;;;;;;;2.42;1.83;;;16.30;99.90;;;;;;4228251;28;20665;-73
2022/11/28 06:36:35;;;;;;;2.10;1.90;;;16.30;99.90;;;;;;4225407;28;20259;-73
2022/11/28 06:38:38;;;;;;;2.15;1.95;;;16.30;99.90;;;;;;4227370;28;20218;-73
2022/11/28 06:40:41;;;;;;;2.28;2.00;;;16.30;99.90;;;;;;4229692;28;20912;-73
2022/11/28 06:42:43;;;;;;;2.30;1.95;;;16.20;99.90;;;;;;4228832;28;20223;-74
2022/11/28 06:44:45;;;;;;;3.60;2.08;;;16.30;99.90;;;;;;4229374;28;20734;-73
2022/11/28 06:46:48;;;;;;;2.58;1.85;;;16.30;99.90;;;;;;4228606;28;20735;-73
2022/11/28 06:48:51;;;;;;;3.10;2.17;;;16.40;99.90;;;;;;4229492;28;20210;-73
2022/11/28 06:50:54;;;;;;;2.50;1.88;;;16.40;99.90;;;;;;4226557;28;20245;-74
2022/11/28 06:52:56;;;;;;;2.10;1.83;;;16.40;99.90;;;;;;4227333;28;20669;-74
2022/11/28 06:55:00;;;;;;;2.40;2.20;;;16.40;99.90;;;;;;4229431;28;20263;-73
2022/11/28 06:57:03;;;;;;;2.25;2.00;;;16.40;99.90;;;;;;4228453;28;20202;-73
2022/11/28 06:59:05;;;;;;;2.00;1.75;;;16.50;99.90;;;;;;4228647;28;20251;-73
2022/11/28 07:01:08;;;;;;;2.28;1.80;;;16.50;99.90;;;;;;4226516;28;20274;-73
2022/11/28 07:03:11;;;;;;;2.35;2.15;;;16.50;99.90;;;;;;4228789;28;20214;-73
2022/11/28 07:05:15;;;;;;;2.65;1.73;;;16.50;99.90;;;;;;4227828;28;21543;-74
2022/11/28 07:07:18;;;;;;;2.10;1.90;;;16.50;99.90;;;;;;4227081;28;20234;-73
2022/11/28 07:09:20;;;;;;;2.67;1.92;;;16.60;99.90;;;;;;4228536;28;20218;-74
2022/11/28 07:11:26;;;;;;;2.10;1.88;;;16.60;99.90;;;;;;4228740;28;20620;-73
2022/11/28 07:13:29;;;;;;;2.22;1.67;;;16.70;99.90;;;;;;4227697;28;20274;-73
2022/11/28 07:15:31;;;;;;;1.80;1.70;;;16.60;99.90;;;;;;4227827;28;20218;-73
2022/11/28 07:17:34;;;;;;;2.13;1.70;;;16.70;99.90;;;;;;4228119;28;20650;-73
2022/11/28 07:19:37;;;;;;;2.20;1.80;;;16.70;99.90;;;;;;4228297;28;20222;-73
2022/11/28 07:21:40;;;;;;;2.25;1.70;;;16.70;99.90;;;;;;4237038;27;20639;-73
2022/11/28 07:23:43;;;;;;;1.92;1.80;;;16.80;99.90;;;;;;4244003;27;20213;-73
2022/11/28 07:25:45;;;;;;;1.60;1.50;;;16.80;99.90;;;;;;4243906;27;20225;-73
2022/11/28 07:27:49;;;;;;;2.00;1.80;;;16.80;99.90;;;;;;4244419;27;20244;-73
2022/11/28 07:29:51;;;;;;;2.33;1.95;;;16.90;99.90;;;;;;4246312;27;20285;-74
2022/11/28 07:31:54;;;;;;;2.13;1.77;;;16.90;99.90;;;;;;4246449;27;20217;-73
2022/11/28 07:33:56;;;;;;;2.10;1.83;;;16.90;99.90;;;;;;4245329;27;20213;-73
2022/11/28 07:36:01;;;;;;;1.95;1.67;;;16.90;99.90;;;;;;4244589;27;20213;-73
2022/11/28 07:38:04;;;;;;;2.05;1.80;;;17.00;99.90;;;;;;4243975;27;20714;-73
2022/11/28 07:40:07;;;;;;;2.03;1.75;;;17.00;99.90;;;;;;4243315;27;20217;-73
2022/11/28 07:42:10;;;;;;;1.75;1.60;;;17.00;99.90;;;;;;4245977;27;20213;-73
2022/11/28 07:44:16;;;;;;;1.98;1.70;;;17.00;99.90;;;;;;4243854;27;20258;-73
2022/11/28 07:46:20;;;;;;;2.30;1.55;;;17.00;99.90;;;;;;4245240;27;20225;-73
2022/11/28 07:48:22;;;;;;;1.42;1.30;;;17.10;99.90;;;;;;4245816;27;20983;-73
2022/11/28 07:50:24;;;;;;;2.05;1.70;;;17.10;99.90;;;;;;4245643;27;20665;-73
2022/11/28 07:52:27;;;;;;;2.38;1.63;;;17.10;99.90;;;;;;4244878;27;20216;-73
2022/11/28 07:54:29;;;;;;;1.80;1.42;;;17.10;99.90;;;;;;4244883;27;20622;-73
2022/11/28 07:56:33;;;;;;;2.17;1.73;;;17.20;99.90;;;;;;4242198;27;20216;-72
2022/11/28 07:58:37;;;;;;;2.20;1.60;;;17.10;99.90;;;;;;4241282;27;20221;-72
2022/11/28 08:00:41;;;;;;;5.68;1.80;;;17.10;99.90;;;;;;4241718;27;20239;-71
2022/11/28 08:02:43;;;;;;;2.25;1.65;;;17.10;99.90;;;;;;4245457;27;20209;-74
2022/11/28 08:04:46;;;;;;;2.70;1.90;;;17.20;99.90;;;;;;4244691;27;20254;-74
2022/11/28 08:06:48;;;;;;;4.22;2.00;;;17.20;99.90;;;;;;4243272;27;20275;-75
2022/11/28 08:08:52;;;;;;;9.02;2.00;;;17.20;99.90;;;;;;4242050;27;20213;-82
2022/11/28 08:10:58;;;;;;;7.40;2.00;;;17.20;99.90;;;;;;4238134;27;20253;-80
2022/11/28 08:13:01;;;;;;;3.65;2.05;;;17.10;99.90;;;;;;4243554;27;20262;-80
2022/11/28 08:15:06;;;;;;;6.28;2.22;;;17.20;99.90;;;;;;4247060;27;20259;-80
2022/11/28 08:17:10;;;;;;;8.38;2.15;;;17.40;99.90;;;;;;4243085;27;20209;-79
2022/11/28 08:19:12;;;;;;;1.98;1.70;;;17.40;99.90;;;;;;4245703;27;20353;-80
2022/11/28 08:21:17;;;;;;;5.75;2.10;;;17.40;99.90;;;;;;4249740;27;20233;-80
2022/11/28 08:23:20;;;;;;;5.00;3.30;;;17.50;99.90;;;;;;4243206;27;20266;-81
2022/11/28 08:25:22;;;;;;;3.85;3.20;;;17.50;99.90;;;;;;4232411;27;20209;-80
2022/11/28 08:27:24;;;;;;;4.53;2.20;;;17.50;99.90;;;;;;4227959;28;20279;-79
2022/11/28 08:29:27;;;;;;;3.70;2.05;;;17.50;99.90;;;;;;4217196;28;20263;-79
2022/11/28 08:31:32;;;;;;;3.33;1.90;;;17.50;99.90;;;;;;4227017;28;20217;-78
2022/11/28 08:33:35;;;;;;;4.82;2.40;;;17.50;99.90;;;;;;4237266;27;20349;-78
2022/11/28 08:35:40;;;;;;;3.83;2.40;;;17.60;99.90;;;;;;4228571;27;20225;-79
2022/11/28 08:37:43;;;;;;;2.63;1.70;;;17.60;99.90;;;;;;4231753;27;20227;-78
2022/11/28 08:39:45;;;;;;;8.00;1.98;;;17.70;99.90;;;;;;4224403;28;20267;-76
2022/11/28 08:41:48;;;;;;;15.43;2.85;;;17.70;99.90;;;;;;4225929;28;20769;-76
2022/11/28 08:43:51;;;;;;;8.80;2.25;;;17.70;99.90;;;;;;4230810;27;20264;-76
2022/11/28 08:45:53;;;;;;;3.70;2.40;;;17.70;99.90;;;;;;4221729;27;20214;-79
2022/11/28 08:47:55;;;;;;;6.03;2.50;;;17.80;99.90;;;;;;4229245;28;20291;-82
2022/11/28 08:49:59;;;;;;;8.88;2.00;;;17.80;99.90;;;;;;4227267;28;20222;-83
2022/11/28 08:52:03;;;;;;;6.43;2.03;;;17.90;99.90;;;;;;4228479;28;20282;-84
2022/11/28 08:54:05;;;;;;;4.03;1.95;;;17.90;99.90;;;;;;4228207;28;20632;-82
2022/11/28 08:56:09;;;;;;;6.82;2.80;;;17.90;99.90;;;;;;4228941;28;20622;-88
2022/11/28 08:58:11;;;;;;;5.18;2.47;;;17.90;99.90;;;;;;4227769;28;20247;-85
2022/11/28 09:00:15;;;;;;;4.55;2.80;;;17.90;99.90;;;;;;4226953;28;20267;-79
2022/11/28 09:02:18;;;;;;;6.97;2.80;;;17.90;99.90;;;;;;4224669;28;20274;-80
2022/11/28 09:04:22;;;;;;;5.15;2.13;;;18.00;99.90;;;;;;4230412;28;20225;-85
2022/11/28 09:06:26;;;;;;;5.63;2.20;;;17.90;99.90;;;;;;4229925;28;20256;-84
2022/11/28 09:08:28;;;;;;;4.07;1.95;;;18.00;99.90;;;;;;4227022;28;20238;-83
2022/11/28 09:10:31;;;;;;;4.10;2.03;;;18.00;99.90;;;;;;4227810;28;20268;-81
2022/11/28 09:12:33;;;;;;;3.15;2.40;;;18.00;99.90;;;;;;4225869;28;21504;-82
2022/11/28 09:14:36;;;;;;;3.58;2.28;;;18.00;99.90;;;;;;4225051;28;20218;-83
2022/11/28 09:16:39;;;;;;;2.75;2.08;;;18.00;99.90;;;;;;4225457;28;20228;-79
2022/11/28 09:18:41;;;;;;;4.60;2.00;;;18.10;99.90;;;;;;4228180;28;20249;-84
2022/11/28 09:20:44;;;;;;;5.57;2.58;;;18.10;99.90;;;;;;4225009;28;20298;-83
2022/11/28 09:22:47;;;;;;;5.85;2.60;;;18.10;99.90;;;;;;4228889;28;20222;-81
2022/11/28 09:24:52;;;;;;;3.55;2.22;;;18.10;99.90;;;;;;4226729;28;20303;-80
2022/11/28 09:26:54;;;;;;;3.22;1.95;;;18.10;99.90;;;;;;4238134;27;20217;-78
2022/11/28 09:28:56;;;;;;;17.05;2.38;;;18.20;99.90;;;;;;4231449;27;20233;-75
2022/11/28 09:31:03;;;;;;;5.80;2.30;;;18.20;99.90;;;;;;4229385;27;20249;-76
2022/11/28 09:33:08;;;;;;;6.55;2.58;;;18.20;99.90;;;;;;4242854;28;20254;-74
2022/11/28 09:35:10;;;;;;;8.25;2.95;;;18.20;99.90;;;;;;4230903;27;20236;-80
2022/11/28 09:37:12;;;;;;;5.22;2.13;;;18.30;99.90;;;;;;4234005;28;20209;-78
2022/11/28 09:39:16;;;;;;;5.95;2.13;;;18.30;99.90;;;;;;4233346;27;20617;-80
2022/11/28 09:41:38;;;;;;;9.52;2.63;;;18.40;99.90;;;;;;4236556;27;20217;-74
2022/11/28 09:43:44;;;;;;;10.60;2.50;;;18.40;99.90;;;;;;4218526;27;20235;-72
2022/11/28 09:45:50;;;;;;;17.65;2.83;;;18.40;99.90;;;;;;4223187;27;20210;-71
2022/11/28 09:47:58;;;;;;;13.48;2.95;;;18.40;99.90;;;;;;4236478;27;20643;-72
2022/11/28 09:50:05;;;;;;;7.30;2.65;;;18.30;99.90;;;;;;4233496;27;20258;-70
2022/11/28 09:52:21;;;;;;;14.75;2.55;;;18.40;99.90;;;;;;4225088;27;21013;-71
2022/11/28 09:54:34;;;;;;;6.82;2.63;;;18.50;99.90;;;;;;4224855;27;20239;-72
2022/11/28 09:56:37;;;;;;;11.77;2.47;;;18.50;99.90;;;;;;4227851;27;20206;-71
2022/11/28 09:58:45;;;;;;;8.77;3.20;;;18.60;99.90;;;;;;4227147;27;21644;-71
2022/11/28 10:00:56;;;;;;;9.48;3.92;;;18.50;99.90;;;;;;4227242;27;20216;-72
2022/11/28 10:03:13;;;;;;;11.93;3.42;;;18.50;99.90;;;;;;4236626;27;20214;-72
2022/11/28 10:05:23;;;;;;;18.52;4.05;;;18.60;99.90;;;;;;4236006;27;20254;-73
2022/11/28 10:07:37;;;;;;;10.85;3.72;;;18.60;99.90;;;;;;4242761;27;20266;-72
2022/11/28 10:09:49;;;;;;;10.68;3.80;;;18.60;99.90;;;;;;4225015;27;20214;-72
2022/11/28 10:12:06;;;;;;;12.23;3.47;;;18.60;99.90;;;;;;4231035;27;20266;-72
2022/11/28 10:14:40;;;;;;;7.00;3.55;;;18.60;99.90;;;;;;4233192;27;20221;-71
2022/11/28 10:16:51;;;;;;;8.32;3.03;;;18.60;99.90;;;;;;4234524;27;20213;-72
2022/11/28 10:18:58;;;;;;;8.52;2.83;;;18.70;99.90;;;;;;4232571;27;20314;-71
2022/11/28 10:21:04;;;;;;;5.15;2.38;;;18.80;99.90;;;;;;4233460;27;20233;-72
2022/11/28 10:23:14;;;;;;;10.23;3.20;;;18.80;99.90;;;;;;4238037;27;20262;-71
2022/11/28 10:25:26;;;;;;;4.72;2.40;;;18.70;99.90;;;;;;4221718;27;20721;-71
2022/11/28 10:27:34;;;;;;;6.53;2.42;;;18.90;99.90;;;;;;4236015;27;20213;-72
2022/11/28 10:29:45;;;;;;;8.50;2.67;;;18.80;99.90;;;;;;4236111;27;20254;-72
2022/11/28 10:31:50;;;;;;;6.13;2.47;;;18.90;99.90;;;;;;4234500;27;20258;-72
2022/11/28 10:33:56;;;;;;;7.00;2.42;;;18.90;99.90;;;;;;4231639;27;20282;-74
2022/11/28 10:36:00;;;;;;;4.80;2.85;;;18.90;99.90;;;;;;4239278;27;20209;-72
2022/11/28 10:38:06;;;;;;;6.93;2.33;;;19.00;99.90;;;;;;4235574;27;20270;-72
2022/11/28 10:40:23;;;;;;;8.25;2.92;;;19.00;99.90;;;;;;4242009;27;20225;-72
2022/11/28 10:42:32;;;;;;;3.70;2.38;;;19.00;99.90;;;;;;4231964;27;20212;-72
2022/11/28 10:44:44;;;;;;;6.40;2.08;;;19.00;99.90;;;;;;4242185;27;20212;-71
2022/11/28 10:46:56;;;;;;;5.00;2.33;;;19.00;99.90;;;;;;4235649;27;20214;-75
2022/11/28 10:49:10;;;;;;;6.30;1.90;;;19.10;99.90;;;;;;4240912;27;20281;-74
2022/11/28 10:51:28;;;;;;;7.28;2.50;;;19.10;99.90;;;;;;4242023;27;20209;-74